Main page
METAR-TAF:

METAR-TAF

Airports :

Vilnius Airport

Vilnius, Lithuania

latitude: 54-38N, longitude: 025-06E, elevation: 162 m

Current weather observation

The report was made 10 minutes ago, at 14:50 UTC
Wind 15 kt from the South/Southeast
Temperature 20°C
Humidity 19%
Pressure 1023 hPa
Visibility 10 km or more
no clouds below 1500 m and no cumulonimbus

METAR: EYVI 241450Z 15015KT CAVOK 20/M04 Q1023 NOSIG

Time: 18:00 (15:00 UTC)

Forecast

The report was made 3 hours and 2 minutes ago, at 11:58 UTC
Forecast valid from 24 at 12 UTC to 25 at 12 UTC
Wind 18 kt from the Southeast with gusts up to 30 kt
Visibility: 9000 m
Becoming
from 24 at 16 UTC to 24 at 18 UTC
Wind 8 kt from the Southeast

TAF: EYVI 241158Z 2412/2512 14018G30KT 9000 NSC BECMG 2416/2418 13008KT

Weather observations and forecasts of more than 4000 airports (METAR and TAF reports).

The available stations are represented by yellow and red dots on the map.

Hover mouse over dot to see the name of the station.

Then click to see weather observations and forecasts.

To change the map : click on the green buttons with a black cross to zoom in, on the green button with a dash to zoom out, or on the green arrows for adjacent maps.


METAR-TAF: